createdAt,value
2023-01-17T00:02:09.237Z,5.60
2023-01-17T00:04:54.741Z,5.80
2023-01-17T00:07:43.505Z,4.80
2023-01-17T00:10:18.436Z,5.37
2023-01-17T00:12:57.382Z,5.87
2023-01-17T00:15:25.585Z,6.10
2023-01-17T00:17:53.182Z,5.90
2023-01-17T00:20:41.635Z,5.87
2023-01-17T00:23:36.782Z,5.97
2023-01-17T00:26:05.984Z,4.27
2023-01-17T00:28:35.606Z,4.97
2023-01-17T00:31:03.625Z,4.90
2023-01-17T00:33:30.832Z,5.30
2023-01-17T00:35:59.031Z,5.77
2023-01-17T00:38:28.971Z,5.07
2023-01-17T00:41:01.129Z,4.33
2023-01-17T00:43:49.074Z,4.20
2023-01-17T00:46:34.930Z,4.40
2023-01-17T00:49:20.621Z,4.17
2023-01-17T00:52:16.800Z,4.27
2023-01-17T00:55:02.299Z,4.03
2023-01-17T00:57:47.619Z,4.60
2023-01-17T01:00:33.491Z,4.40
2023-01-17T01:03:18.934Z,4.90
2023-01-17T01:06:04.345Z,4.53
2023-01-17T01:08:49.515Z,5.13
2023-01-17T01:11:38.432Z,4.87
2023-01-17T01:14:26.330Z,4.27
2023-01-17T01:17:11.887Z,3.57
2023-01-17T01:19:57.732Z,4.20
2023-01-17T01:22:43.526Z,4.17
2023-01-17T01:25:29.097Z,4.17
2023-01-17T01:28:25.811Z,4.40
2023-01-17T01:31:11.139Z,3.67
2023-01-17T01:33:38.545Z,4.00
2023-01-17T01:36:07.887Z,4.20
2023-01-17T01:38:34.888Z,4.70
2023-01-17T01:41:01.812Z,5.03
2023-01-17T01:43:49.877Z,5.30
2023-01-17T01:46:28.587Z,5.03
2023-01-17T01:49:04.935Z,4.40
2023-01-17T01:51:54.475Z,4.20
2023-01-17T01:54:26.330Z,4.47
2023-01-17T01:56:56.205Z,3.93
2023-01-17T01:59:23.393Z,3.83
2023-01-17T02:01:53.172Z,3.80
2023-01-17T02:04:21.134Z,3.60
2023-01-17T02:06:51.662Z,3.70
2023-01-17T02:09:19.489Z,3.50
2023-01-17T02:11:48.844Z,3.97
2023-01-17T02:14:17.571Z,4.57
2023-01-17T02:17:11.743Z,5.10
2023-01-17T02:20:00.367Z,4.10
2023-01-17T02:23:10.150Z,3.60
2023-01-17T02:25:58.567Z,4.27
2023-01-17T02:29:07.373Z,4.97
2023-01-17T02:31:59.440Z,4.63
2023-01-17T02:34:51.277Z,4.07
2023-01-17T02:37:30.886Z,3.93
2023-01-17T02:40:10.808Z,4.00
2023-01-17T02:42:44.676Z,4.03
2023-01-17T02:45:17.613Z,4.27
2023-01-17T02:47:44.840Z,4.27
2023-01-17T02:50:19.721Z,4.10
2023-01-17T02:53:16.150Z,4.27
2023-01-17T02:55:51.726Z,4.13
2023-01-17T02:58:43.435Z,4.40
2023-01-17T03:01:16.244Z,4.13
2023-01-17T03:04:00.651Z,4.37
2023-01-17T03:06:41.552Z,3.70
2023-01-17T03:09:09.728Z,4.00
2023-01-17T03:11:36.795Z,4.63
2023-01-17T03:14:03.555Z,4.37
2023-01-17T03:16:34.387Z,4.10
2023-01-17T03:19:01.568Z,4.07
2023-01-17T03:21:28.453Z,4.20
2023-01-17T03:23:55.695Z,4.37
2023-01-17T03:26:22.503Z,5.73
2023-01-17T03:28:49.271Z,5.03
2023-01-17T03:31:17.900Z,5.40
2023-01-17T03:33:44.762Z,4.30
2023-01-17T03:36:12.212Z,4.77
2023-01-17T03:38:39.146Z,5.37
2023-01-17T03:41:06.375Z,4.27
2023-01-17T03:43:33.128Z,4.80
2023-01-17T03:46:05.338Z,4.63
2023-01-17T03:48:32.829Z,4.17
2023-01-17T03:50:59.862Z,4.53
2023-01-17T03:53:26.948Z,4.63
2023-01-17T03:55:53.794Z,4.50
2023-01-17T03:58:20.748Z,4.60
2023-01-17T04:00:47.545Z,4.53
2023-01-17T04:03:14.325Z,4.23
2023-01-17T04:05:41.074Z,4.13
2023-01-17T04:08:07.854Z,4.27
2023-01-17T04:10:34.652Z,4.40
2023-01-17T04:13:01.457Z,5.10
2023-01-17T04:15:28.417Z,4.33
2023-01-17T04:17:55.499Z,4.83
2023-01-17T04:20:33.081Z,4.60
2023-01-17T04:22:59.960Z,4.20
2023-01-17T04:25:27.498Z,4.13
2023-01-17T04:27:54.533Z,4.60
2023-01-17T04:30:21.715Z,5.10
2023-01-17T04:32:48.513Z,4.60
2023-01-17T04:35:15.476Z,4.10
2023-01-17T04:37:42.560Z,5.03
2023-01-17T04:40:10.572Z,4.60
2023-01-17T04:42:37.334Z,4.70
2023-01-17T04:45:05.237Z,4.27
2023-01-17T04:47:34.010Z,4.77
2023-01-17T04:50:00.787Z,4.80
2023-01-17T04:52:27.726Z,4.50
2023-01-17T04:54:54.453Z,4.47
2023-01-17T04:57:21.199Z,4.83
2023-01-17T04:59:48.013Z,4.17
2023-01-17T05:02:14.988Z,4.47
2023-01-17T05:04:41.773Z,3.87
2023-01-17T05:07:08.703Z,4.63
2023-01-17T05:09:35.431Z,4.27
2023-01-17T05:12:02.226Z,4.50
2023-01-17T05:14:29.200Z,3.83
2023-01-17T05:16:59.255Z,4.13
2023-01-17T05:19:27.422Z,4.13
2023-01-17T05:21:54.539Z,4.17
2023-01-17T05:24:21.292Z,3.47
2023-01-17T05:26:54.664Z,3.73
2023-01-17T05:29:22.131Z,3.97
2023-01-17T05:31:48.915Z,3.70
2023-01-17T05:34:15.668Z,3.60
2023-01-17T05:36:42.533Z,4.17
2023-01-17T05:39:09.579Z,3.97
2023-01-17T05:41:36.348Z,3.70
2023-01-17T05:44:03.128Z,4.17
2023-01-17T05:46:30.302Z,4.23
2023-01-17T05:48:57.333Z,3.77
2023-01-17T05:51:24.151Z,3.93
2023-01-17T05:53:50.937Z,4.13
2023-01-17T05:56:17.694Z,3.80
2023-01-17T05:58:44.550Z,4.67
2023-01-17T06:01:11.586Z,4.10
2023-01-17T06:03:38.522Z,4.53
2023-01-17T06:06:05.478Z,4.70
2023-01-17T06:08:32.301Z,4.10
2023-01-17T06:10:59.592Z,4.00
2023-01-17T06:13:26.502Z,3.90
2023-01-17T06:15:53.382Z,4.07
2023-01-17T06:18:20.164Z,4.63
2023-01-17T06:20:54.423Z,4.50
2023-01-17T06:23:21.914Z,4.87
2023-01-17T06:25:49.395Z,5.07
2023-01-17T06:28:18.618Z,4.50
2023-01-17T06:30:46.194Z,4.17
2023-01-17T06:33:13.676Z,5.13
2023-01-17T06:35:46.799Z,4.57
2023-01-17T06:38:13.659Z,4.87
2023-01-17T06:40:40.459Z,4.40
2023-01-17T06:43:07.292Z,4.33
2023-01-17T06:45:35.741Z,4.57
2023-01-17T06:48:05.842Z,4.10
2023-01-17T06:50:34.289Z,4.23
2023-01-17T06:53:06.288Z,4.43
2023-01-17T06:55:34.189Z,4.20
2023-01-17T06:58:02.991Z,4.37
2023-01-17T07:00:31.828Z,4.27
2023-01-17T07:02:58.843Z,4.60
2023-01-17T07:05:26.036Z,4.60
2023-01-17T07:07:53.624Z,4.93
2023-01-17T07:10:21.063Z,4.13
2023-01-17T07:12:47.921Z,4.20
2023-01-17T07:15:14.924Z,4.67
2023-01-17T07:17:41.812Z,5.43
2023-01-17T07:20:09.443Z,4.43
2023-01-17T07:22:37.880Z,4.87
2023-01-17T07:25:05.511Z,5.17
2023-01-17T07:27:33.643Z,5.43
2023-01-17T07:30:00.631Z,4.60
2023-01-17T07:32:27.788Z,4.67
2023-01-17T07:34:57.593Z,5.47
2023-01-17T07:37:26.349Z,4.47
2023-01-17T07:39:54.574Z,4.30
2023-01-17T07:42:26.788Z,4.87
2023-01-17T07:45:00.401Z,4.43
2023-01-17T07:47:41.757Z,4.83
2023-01-17T07:50:10.529Z,4.77
2023-01-17T07:52:37.388Z,4.37
2023-01-17T07:55:05.091Z,4.77
2023-01-17T07:57:32.765Z,3.90
2023-01-17T07:59:59.706Z,4.37
2023-01-17T08:02:28.740Z,4.70
2023-01-17T08:04:55.549Z,4.70
2023-01-17T08:07:22.305Z,5.17
2023-01-17T08:09:50.280Z,4.60
2023-01-17T08:12:17.166Z,4.83
2023-01-17T08:14:44.590Z,5.07
2023-01-17T08:17:16.375Z,5.43
2023-01-17T08:19:43.439Z,5.47
2023-01-17T08:22:12.147Z,5.00
2023-01-17T08:24:38.972Z,5.00
2023-01-17T08:27:05.731Z,5.40
2023-01-17T08:29:32.576Z,5.90
2023-01-17T08:32:01.767Z,5.70
2023-01-17T08:34:28.648Z,5.47
2023-01-17T08:36:55.476Z,6.13
2023-01-17T08:39:22.416Z,5.57
2023-01-17T08:41:49.203Z,6.07
2023-01-17T08:44:16.099Z,6.60
2023-01-17T08:46:44.174Z,6.17
2023-01-17T08:49:11.869Z,5.60
2023-01-17T08:51:38.812Z,8.53
2023-01-17T08:54:05.802Z,7.03
2023-01-17T08:56:32.747Z,6.83
2023-01-17T08:58:59.471Z,7.47
2023-01-17T09:01:26.467Z,6.67
2023-01-17T09:03:53.338Z,7.27
2023-01-17T09:06:20.250Z,8.17
2023-01-17T09:08:48.010Z,6.90
2023-01-17T09:11:17.352Z,6.57
2023-01-17T09:13:54.109Z,7.27
2023-01-17T09:16:29.183Z,7.13
2023-01-17T09:18:57.576Z,6.37
2023-01-17T09:21:25.702Z,7.57
2023-01-17T09:23:53.626Z,7.57
2023-01-17T09:26:30.432Z,7.43
2023-01-17T09:28:58.669Z,7.03
2023-01-17T09:31:27.154Z,7.17
2023-01-17T09:33:55.745Z,7.80
2023-01-17T09:36:26.285Z,7.13
2023-01-17T09:39:00.182Z,6.40
2023-01-17T09:41:41.298Z,6.67
2023-01-17T09:44:28.779Z,6.33
2023-01-17T09:47:00.026Z,5.87
2023-01-17T09:49:42.310Z,5.37
2023-01-17T09:52:21.168Z,4.93
2023-01-17T09:54:49.869Z,5.40
2023-01-17T09:57:38.763Z,5.40
2023-01-17T10:00:33.839Z,5.40
2023-01-17T10:03:01.313Z,5.90
2023-01-17T10:06:08.458Z,5.20
2023-01-17T10:08:55.354Z,5.30
2023-01-17T10:11:36.255Z,5.00
2023-01-17T10:14:32.434Z,5.40
2023-01-17T10:17:40.624Z,5.10
2023-01-17T10:20:37.053Z,5.13
2023-01-17T10:23:31.154Z,5.63
2023-01-17T10:26:07.562Z,5.40
2023-01-17T10:28:43.770Z,4.90
2023-01-17T10:31:35.724Z,4.10
2023-01-17T10:34:13.668Z,4.63
2023-01-17T10:36:46.821Z,5.30
2023-01-17T10:39:24.529Z,5.27
2023-01-17T10:41:55.342Z,4.50
2023-01-17T10:44:57.961Z,6.20
2023-01-17T10:47:25.919Z,4.93
2023-01-17T10:49:54.772Z,5.20
2023-01-17T10:52:40.360Z,5.30
2023-01-17T10:55:20.654Z,4.73
2023-01-17T10:57:49.587Z,4.20
2023-01-17T11:00:45.155Z,5.73
2023-01-17T11:03:16.332Z,4.43
2023-01-17T11:05:44.015Z,5.20
2023-01-17T11:08:13.773Z,5.13
2023-01-17T11:10:55.353Z,4.43
2023-01-17T11:13:30.082Z,4.53
2023-01-17T11:16:01.278Z,4.67
2023-01-17T11:18:34.962Z,4.53
2023-01-17T11:21:11.788Z,4.03
2023-01-17T11:23:43.072Z,4.40
2023-01-17T11:26:22.405Z,4.40
2023-01-17T11:28:52.411Z,4.80
2023-01-17T11:31:19.328Z,4.77
2023-01-17T11:33:55.649Z,4.10
2023-01-17T11:36:30.887Z,4.20
2023-01-17T11:39:05.628Z,4.13
2023-01-17T11:41:38.607Z,4.53
2023-01-17T11:44:24.052Z,4.33
2023-01-17T11:47:14.538Z,3.47
2023-01-17T11:49:44.404Z,4.00
2023-01-17T11:52:26.214Z,3.43
2023-01-17T11:54:56.641Z,4.00
2023-01-17T11:57:35.576Z,4.13
2023-01-17T12:00:37.936Z,4.10
2023-01-17T12:03:19.617Z,5.30
2023-01-17T12:06:11.790Z,4.67
2023-01-17T12:09:00.414Z,4.80
2023-01-17T12:12:07.349Z,4.93
2023-01-17T12:14:46.294Z,3.63
2023-01-17T12:17:49.923Z,4.77
2023-01-17T12:20:48.666Z,3.57
2023-01-17T12:23:59.190Z,3.53
2023-01-17T12:26:45.082Z,3.70
2023-01-17T12:29:30.509Z,4.77
2023-01-17T12:32:31.474Z,4.50
2023-01-17T12:35:14.420Z,4.83
2023-01-17T12:37:57.363Z,4.40
2023-01-17T12:40:44.368Z,3.90
2023-01-17T12:43:32.959Z,4.00
2023-01-17T12:46:05.642Z,4.50
2023-01-17T12:48:37.916Z,4.13
2023-01-17T12:51:04.980Z,3.93
2023-01-17T12:53:58.014Z,4.30
2023-01-17T12:56:56.474Z,3.40
2023-01-17T12:59:30.091Z,3.73
2023-01-17T13:02:00.209Z,3.83
2023-01-17T13:04:57.491Z,4.50
2023-01-17T13:07:49.522Z,3.80
2023-01-17T13:10:44.520Z,3.67
2023-01-17T13:13:20.307Z,4.00
2023-01-17T13:15:49.862Z,3.50
2023-01-17T13:18:26.141Z,4.00
2023-01-17T13:21:16.860Z,3.83
2023-01-17T13:24:02.527Z,4.30
2023-01-17T13:27:02.482Z,3.63
2023-01-17T13:30:04.421Z,3.67
2023-01-17T13:32:58.038Z,3.57
2023-01-17T13:35:44.600Z,3.23
2023-01-17T13:38:34.783Z,3.03
2023-01-17T13:41:28.370Z,3.20
2023-01-17T13:44:14.590Z,3.00
2023-01-17T13:47:27.694Z,3.87
2023-01-17T13:49:56.846Z,2.37
2023-01-17T13:52:26.624Z,3.03
2023-01-17T13:54:56.547Z,2.87
2023-01-17T13:57:23.503Z,2.60
2023-01-17T13:59:50.761Z,2.73
2023-01-17T14:02:32.852Z,2.27
2023-01-17T14:05:42.695Z,2.33
2023-01-17T14:08:21.987Z,2.30
2023-01-17T14:10:53.115Z,2.30
2023-01-17T14:13:39.281Z,2.67
2023-01-17T14:16:39.555Z,2.40
2023-01-17T14:19:26.366Z,2.60
2023-01-17T14:22:20.005Z,2.47
2023-01-17T14:24:58.990Z,2.50
2023-01-17T14:27:28.357Z,2.77
2023-01-17T14:30:00.304Z,2.50
2023-01-17T14:32:32.873Z,2.47
2023-01-17T14:35:00.092Z,2.47
2023-01-17T14:37:36.122Z,2.63
2023-01-17T14:40:03.158Z,2.90
2023-01-17T14:42:31.460Z,2.37
2023-01-17T14:45:08.194Z,2.53
2023-01-17T14:47:39.588Z,2.40
2023-01-17T14:50:22.311Z,2.53
2023-01-17T14:53:08.773Z,2.03
2023-01-17T14:55:36.195Z,2.53
2023-01-17T14:58:03.239Z,2.67
2023-01-17T15:00:30.742Z,2.67
2023-01-17T15:02:59.520Z,2.93
2023-01-17T15:05:28.956Z,2.50
2023-01-17T15:07:58.071Z,2.60
2023-01-17T15:10:31.725Z,3.07
2023-01-17T15:13:07.645Z,3.10
2023-01-17T15:15:38.652Z,2.90
2023-01-17T15:18:24.748Z,3.07
2023-01-17T15:20:56.716Z,3.30
2023-01-17T15:23:26.608Z,3.10
2023-01-17T15:25:54.255Z,3.00
2023-01-17T15:28:21.468Z,3.47
2023-01-17T15:31:10.156Z,4.10
2023-01-17T15:33:41.295Z,3.30
2023-01-17T15:36:08.378Z,3.50
2023-01-17T15:38:47.815Z,3.90
2023-01-17T15:41:17.069Z,3.47
2023-01-17T15:43:46.115Z,3.80
2023-01-17T15:46:26.188Z,3.43
2023-01-17T15:48:54.330Z,3.40
2023-01-17T15:51:33.784Z,3.20
2023-01-17T15:54:00.647Z,3.53
2023-01-17T15:56:34.102Z,3.47
2023-01-17T15:59:21.427Z,3.97
2023-01-17T16:01:56.657Z,3.47
2023-01-17T16:04:50.368Z,3.20
2023-01-17T16:07:22.790Z,3.60
2023-01-17T16:09:50.136Z,3.27
2023-01-17T16:12:16.920Z,3.10
2023-01-17T16:14:59.614Z,3.00
2023-01-17T16:17:31.763Z,2.70
2023-01-17T16:19:59.522Z,3.00
2023-01-17T16:22:28.038Z,3.27
2023-01-17T16:24:59.185Z,2.97
2023-01-17T16:27:26.015Z,2.90
2023-01-17T16:29:54.170Z,2.57
2023-01-17T16:32:22.702Z,3.73
2023-01-17T16:34:51.531Z,2.90
2023-01-17T16:37:19.341Z,3.43
2023-01-17T16:39:47.857Z,3.40
2023-01-17T16:42:14.663Z,3.47
2023-01-17T16:44:41.669Z,2.97
2023-01-17T16:47:08.729Z,3.23
2023-01-17T16:49:36.015Z,3.50
2023-01-17T16:52:02.853Z,2.93
2023-01-17T16:54:29.790Z,3.50
2023-01-17T16:56:56.869Z,2.97
2023-01-17T16:59:26.078Z,3.33
2023-01-17T17:01:55.266Z,3.47
2023-01-17T17:04:26.661Z,3.17
2023-01-17T17:06:53.442Z,3.50
2023-01-17T17:09:22.384Z,3.27
2023-01-17T17:11:49.200Z,3.60
2023-01-17T17:14:16.030Z,3.77
2023-01-17T17:16:44.374Z,3.47
2023-01-17T17:19:11.197Z,4.00
2023-01-17T17:21:38.097Z,3.77
2023-01-17T17:24:05.500Z,3.60
2023-01-17T17:26:35.098Z,3.47
2023-01-17T17:29:03.062Z,3.17
2023-01-17T17:31:31.069Z,3.77
2023-01-17T17:33:59.928Z,4.10
2023-01-17T17:36:26.920Z,3.20
2023-01-17T17:38:58.012Z,4.27
2023-01-17T17:41:31.092Z,4.77
2023-01-17T17:43:58.037Z,4.73
2023-01-17T17:46:26.862Z,4.77
2023-01-17T17:48:54.004Z,5.03
2023-01-17T17:51:28.142Z,4.93
2023-01-17T17:53:57.679Z,4.83
2023-01-17T17:56:24.672Z,4.57
2023-01-17T17:58:51.759Z,5.03
2023-01-17T18:01:18.830Z,5.00
2023-01-17T18:03:45.748Z,5.73
2023-01-17T18:06:13.401Z,5.70
2023-01-17T18:08:40.181Z,5.40
2023-01-17T18:11:11.271Z,6.90
2023-01-17T18:13:39.028Z,5.77
2023-01-17T18:16:12.279Z,5.83
2023-01-17T18:18:43.336Z,6.03
2023-01-17T18:21:13.584Z,5.67
2023-01-17T18:23:43.108Z,5.73
2023-01-17T18:26:18.714Z,5.70
2023-01-17T18:28:46.024Z,5.17
2023-01-17T18:31:12.902Z,5.03
2023-01-17T18:33:40.143Z,5.10
2023-01-17T18:36:12.426Z,5.43
2023-01-17T18:38:42.706Z,4.63
2023-01-17T18:41:12.442Z,5.70
2023-01-17T18:43:39.992Z,5.40
2023-01-17T18:46:09.919Z,5.70
2023-01-17T18:48:37.802Z,5.97
2023-01-17T18:51:07.541Z,5.60
2023-01-17T18:53:37.550Z,5.50
2023-01-17T18:56:07.395Z,6.57
2023-01-17T18:58:38.315Z,5.33
2023-01-17T19:01:12.431Z,6.57
2023-01-17T19:03:41.269Z,5.80
2023-01-17T19:06:10.824Z,5.27
2023-01-17T19:08:38.171Z,6.00
2023-01-17T19:11:05.090Z,5.57
2023-01-17T19:13:32.917Z,5.50
2023-01-17T19:16:01.423Z,6.47
2023-01-17T19:18:28.562Z,6.10
2023-01-17T19:20:56.020Z,6.60
2023-01-17T19:23:23.240Z,5.50
2023-01-17T19:25:55.072Z,6.13
2023-01-17T19:28:23.553Z,5.37
2023-01-17T19:31:00.778Z,6.57
2023-01-17T19:33:32.128Z,5.27
2023-01-17T19:36:00.302Z,5.80
2023-01-17T19:38:28.117Z,5.90
2023-01-17T19:40:54.864Z,5.80
2023-01-17T19:43:21.827Z,5.77
2023-01-17T19:46:00.229Z,6.30
2023-01-17T19:48:28.442Z,5.47
2023-01-17T19:50:55.842Z,5.90
2023-01-17T19:53:23.731Z,6.57
2023-01-17T19:55:51.970Z,6.63
2023-01-17T19:58:20.164Z,5.97
2023-01-17T20:00:47.735Z,6.60
2023-01-17T20:03:16.288Z,5.80
2023-01-17T20:05:43.058Z,6.17
2023-01-17T20:08:09.962Z,5.90
2023-01-17T20:10:38.162Z,6.50
2023-01-17T20:13:09.990Z,6.77
2023-01-17T20:15:37.448Z,6.63
2023-01-17T20:18:13.592Z,6.23
2023-01-17T20:20:56.272Z,6.23
2023-01-17T20:23:24.186Z,5.83
2023-01-17T20:25:59.152Z,6.80
2023-01-17T20:28:29.051Z,6.83
2023-01-17T20:30:56.365Z,6.50
2023-01-17T20:33:26.718Z,6.00
2023-01-17T20:36:08.755Z,6.50
2023-01-17T20:38:44.050Z,5.93
2023-01-17T20:41:26.262Z,6.80
2023-01-17T20:43:55.584Z,7.00
2023-01-17T20:46:25.250Z,6.73
2023-01-17T20:49:01.044Z,6.17
2023-01-17T20:51:29.445Z,6.40
2023-01-17T20:54:05.037Z,6.33
2023-01-17T20:56:37.834Z,6.77
2023-01-17T20:59:09.365Z,6.33
2023-01-17T21:01:37.101Z,6.17
2023-01-17T21:04:05.608Z,7.33
2023-01-17T21:06:32.413Z,6.63
2023-01-17T21:09:04.249Z,6.17
2023-01-17T21:11:32.036Z,6.67
2023-01-17T21:13:58.823Z,7.13
2023-01-17T21:16:28.056Z,6.93
2023-01-17T21:18:54.919Z,6.97
2023-01-17T21:21:24.637Z,6.87
2023-01-17T21:23:53.318Z,6.20
2023-01-17T21:26:21.891Z,7.23
2023-01-17T21:28:49.584Z,6.60
2023-01-17T21:31:25.740Z,7.53
2023-01-17T21:33:59.932Z,7.10
2023-01-17T21:36:32.551Z,7.23
2023-01-17T21:39:04.452Z,7.80
2023-01-17T21:41:36.526Z,7.73
2023-01-17T21:44:10.685Z,7.83
2023-01-17T21:46:38.839Z,7.73
2023-01-17T21:49:07.080Z,8.07
2023-01-17T21:51:57.913Z,7.20
2023-01-17T21:54:45.753Z,8.60
2023-01-17T21:57:35.941Z,8.10
2023-01-17T22:00:04.791Z,8.00
2023-01-17T22:02:31.646Z,8.07
2023-01-17T22:04:58.502Z,7.13
2023-01-17T22:07:29.057Z,8.00
2023-01-17T22:09:57.067Z,8.73
2023-01-17T22:12:24.175Z,8.60
2023-01-17T22:14:51.035Z,8.10
2023-01-17T22:17:20.452Z,7.47
2023-01-17T22:19:47.256Z,7.50
2023-01-17T22:22:14.062Z,7.30
2023-01-17T22:24:40.892Z,7.10
2023-01-17T22:27:09.920Z,8.07
2023-01-17T22:29:39.726Z,8.27
2023-01-17T22:32:09.255Z,8.27
2023-01-17T22:34:36.362Z,7.20
2023-01-17T22:37:06.018Z,7.47
2023-01-17T22:39:33.765Z,6.80
2023-01-17T22:42:00.498Z,6.70
2023-01-17T22:44:27.514Z,7.07
2023-01-17T22:46:54.402Z,7.23
2023-01-17T22:49:23.455Z,7.80
2023-01-17T22:51:50.868Z,7.20
2023-01-17T22:54:19.333Z,7.50
2023-01-17T22:56:46.135Z,7.03
2023-01-17T22:59:12.989Z,7.60
2023-01-17T23:01:43.355Z,8.07
2023-01-17T23:04:13.658Z,7.90
2023-01-17T23:06:41.727Z,7.33
2023-01-17T23:09:15.324Z,6.90
2023-01-17T23:11:46.955Z,7.27
2023-01-17T23:14:53.802Z,7.87
2023-01-17T23:17:42.656Z,7.60
2023-01-17T23:20:13.164Z,6.77
2023-01-17T23:22:39.939Z,7.20
2023-01-17T23:25:13.183Z,7.30
2023-01-17T23:28:01.628Z,7.17
2023-01-17T23:30:35.940Z,6.47
2023-01-17T23:33:05.464Z,7.40
2023-01-17T23:35:41.433Z,7.37
2023-01-17T23:38:33.871Z,6.63
2023-01-17T23:41:25.117Z,7.20
2023-01-17T23:43:53.591Z,6.97
2023-01-17T23:46:20.481Z,7.03
2023-01-17T23:48:48.750Z,6.87
2023-01-17T23:51:15.578Z,6.97
2023-01-17T23:53:42.577Z,7.10
2023-01-17T23:56:21.743Z,7.23
2023-01-17T23:58:48.590Z,8.33
